Lontzen, Belgium
Current Conditions -  °F | °C
As of 6:25 PM on Wednesday 26 Nov 2014 (Local Time) from EBLB Reporting Station
Broken Clouds Broken Clouds  
Wind Chill: 41°   Ceiling: 100
Heat Index: 41°   Visibility: 1.6mi
Dew Point: 41°   Wind: 1mph
Humidity: 100%   Direction: NA
Pressure: 29.88"   Gusts: NA
Location:  50.68°N, 6.01°E
Report Text: EBLB 261725Z AUTO VRB01KT 2600 BKN001/// BKN003/// 05/05 Q1012 RED
Loading
Personal Weather Stations






























Interactive Weather Map New forecast layout! Learn more

10-Day Weather Forecast

Advertisements
Track Severe Weather on mobile